Time;durP1;ratioP1;P1;durP2;ratioP2;P2;SDS_P1;SDS_P2;PMS_P1;PMS_P2;Temp;Humidity;BMP_temperature;BMP_pressure;BME280_temperature;BME280_humidity;BME280_pressure;Samples;Min_cycle;Max_cycle;Signal;HPM_P1;HPM_P2
2023/10/24 00:01:02;;;;;;;1999.90;999.90;;;11.20;99.90;;;;;;5075274;28;20033;-70
2023/10/24 00:03:27;;;;;;;1999.90;999.90;;;11.30;99.90;;;;;;5076263;28;20466;-70
2023/10/24 00:05:53;;;;;;;1999.90;999.90;;;11.30;99.90;;;;;;5076439;28;20056;-70
2023/10/24 00:08:18;;;;;;;1999.90;999.90;;;11.30;99.90;;;;;;5076725;28;20048;-70
2023/10/24 00:10:44;;;;;;;1999.90;999.90;;;11.30;99.90;;;;;;5077501;28;20686;-70
2023/10/24 00:13:10;;;;;;;1999.90;999.90;;;11.20;99.90;;;;;;5096847;28;20050;-70
2023/10/24 00:15:35;;;;;;;1999.90;999.90;;;11.20;99.90;;;;;;5096794;28;20037;-70
2023/10/24 00:18:01;;;;;;;1999.90;999.90;;;11.20;99.90;;;;;;5096547;28;20082;-70
2023/10/24 00:20:26;;;;;;;1999.90;999.90;;;11.30;99.90;;;;;;5096866;28;20044;-70
2023/10/24 00:22:52;;;;;;;1999.90;999.90;;;11.30;99.90;;;;;;5095082;28;20060;-70
2023/10/24 00:25:18;;;;;;;1999.90;999.90;;;11.20;99.90;;;;;;5096733;28;20104;-70
2023/10/24 00:27:44;;;;;;;1999.90;999.90;;;11.20;99.90;;;;;;5096314;28;20043;-70
2023/10/24 00:30:10;;;;;;;1999.90;999.90;;;11.30;99.90;;;;;;5096660;28;20064;-70
2023/10/24 00:32:36;;;;;;;1999.90;999.90;;;11.30;99.90;;;;;;5095970;28;20799;-70
2023/10/24 00:35:02;;;;;;;1999.90;999.90;;;11.30;99.90;;;;;;5096468;28;20040;-70
2023/10/24 00:37:28;;;;;;;1999.90;999.90;;;11.30;99.90;;;;;;5096096;28;20033;-70
2023/10/24 00:39:53;;;;;;;1999.90;999.90;;;11.30;99.90;;;;;;5096412;28;20037;-70
2023/10/24 00:42:19;;;;;;;1999.90;999.90;;;11.30;99.90;;;;;;5096039;28;20442;-70
2023/10/24 00:44:44;;;;;;;1999.90;999.90;;;11.30;99.90;;;;;;5096231;28;20036;-70
2023/10/24 00:47:10;;;;;;;1999.90;999.90;;;11.30;99.90;;;;;;5095377;28;20039;-70
2023/10/24 00:49:36;;;;;;;1999.90;999.90;;;11.30;99.90;;;;;;5075519;28;20045;-70
2023/10/24 00:52:02;;;;;;;1999.90;999.90;;;11.30;99.90;;;;;;5075910;28;20029;-70
2023/10/24 00:54:28;;;;;;;1999.90;999.90;;;11.20;99.90;;;;;;5075894;28;20112;-70
2023/10/24 00:56:55;;;;;;;1999.90;999.90;;;11.20;99.90;;;;;;5090070;28;20033;-70
2023/10/24 00:59:23;;;;;;;1999.90;999.90;;;11.20;99.90;;;;;;5095985;28;20082;-70
2023/10/24 01:01:49;;;;;;;1999.90;999.90;;;11.20;99.90;;;;;;5095895;28;20486;-70
2023/10/24 01:04:16;;;;;;;1999.90;999.90;;;11.10;99.90;;;;;;5095614;28;20123;-70
2023/10/24 01:06:42;;;;;;;1999.90;999.90;;;11.20;99.90;;;;;;5093770;28;20090;-70
2023/10/24 01:09:07;;;;;;;1999.90;999.90;;;11.10;99.90;;;;;;5095642;28;20086;-70
2023/10/24 01:11:33;;;;;;;1999.90;999.90;;;11.10;99.90;;;;;;5094018;28;20033;-70
2023/10/24 01:14:01;;;;;;;1999.90;999.90;;;11.10;99.90;;;;;;5095613;28;20040;-70
2023/10/24 01:16:27;;;;;;;1999.90;999.90;;;11.10;99.90;;;;;;5095615;28;20059;-70
2023/10/24 01:18:53;;;;;;;1999.90;999.90;;;11.10;99.90;;;;;;5095555;28;20025;-70
2023/10/24 01:21:18;;;;;;;1999.90;999.90;;;11.10;99.90;;;;;;5095695;28;20028;-70
2023/10/24 01:23:44;;;;;;;1999.90;999.90;;;11.10;99.90;;;;;;5095363;28;20393;-70
2023/10/24 01:26:12;;;;;;;1999.90;999.90;;;11.10;99.90;;;;;;5095296;28;20417;-70
2023/10/24 01:28:38;;;;;;;1999.90;999.90;;;11.10;99.90;;;;;;5095306;28;20037;-70
2023/10/24 01:31:04;;;;;;;1999.90;999.90;;;11.10;99.90;;;;;;5095753;28;20474;-70
2023/10/24 01:33:29;;;;;;;1999.90;999.90;;;11.00;99.90;;;;;;5094945;28;20043;-70
2023/10/24 01:35:55;;;;;;;1999.90;999.90;;;11.00;99.90;;;;;;5094827;28;20170;-70
2023/10/24 01:38:20;;;;;;;1999.90;999.90;;;11.00;99.90;;;;;;5095464;28;20094;-70
2023/10/24 01:40:46;;;;;;;1999.90;999.90;;;11.00;99.90;;;;;;5093195;28;20465;-70
2023/10/24 01:43:11;;;;;;;1999.90;999.90;;;11.10;99.90;;;;;;5093510;28;20527;-70
2023/10/24 01:45:37;;;;;;;1999.90;999.90;;;11.10;99.90;;;;;;5093857;28;20031;-70
2023/10/24 01:48:03;;;;;;;1999.90;999.90;;;11.00;99.90;;;;;;5093525;28;20044;-70
2023/10/24 01:50:28;;;;;;;1999.90;999.90;;;11.00;99.90;;;;;;5095351;28;20031;-70
2023/10/24 01:52:56;;;;;;;1999.90;999.90;;;10.90;99.90;;;;;;5095187;28;20039;-70
2023/10/24 01:55:21;;;;;;;1999.90;999.90;;;10.90;99.90;;;;;;5095162;28;20171;-70
2023/10/24 01:57:47;;;;;;;1999.90;999.90;;;10.80;99.90;;;;;;5094918;28;20035;-70
2023/10/24 02:00:13;;;;;;;1999.90;999.90;;;10.80;99.90;;;;;;5095160;28;20036;-70
2023/10/24 02:02:38;;;;;;;1999.90;999.90;;;10.80;99.90;;;;;;5094852;28;20036;-70
2023/10/24 02:05:04;;;;;;;1999.90;999.90;;;10.80;99.90;;;;;;5086904;28;20036;-70
2023/10/24 02:07:30;;;;;;;1999.90;999.90;;;10.90;99.90;;;;;;5074465;28;20044;-70
2023/10/24 02:09:55;;;;;;;1999.90;999.90;;;10.90;99.90;;;;;;5074785;28;20087;-70
2023/10/24 02:12:22;;;;;;;1999.90;999.90;;;10.90;99.90;;;;;;5080938;28;20078;-70
2023/10/24 02:14:48;;;;;;;1999.90;999.90;;;10.80;99.90;;;;;;5094917;28;20059;-70
2023/10/24 02:17:13;;;;;;;1999.90;999.90;;;10.80;99.90;;;;;;5094292;28;20482;-70
2023/10/24 02:19:39;;;;;;;1999.90;999.90;;;10.80;99.90;;;;;;5094847;28;20036;-70
2023/10/24 02:22:04;;;;;;;1999.90;999.90;;;10.80;99.90;;;;;;5094811;28;20035;-70
2023/10/24 02:24:31;;;;;;;1999.90;999.90;;;10.80;99.90;;;;;;5094327;28;20072;-70
2023/10/24 02:26:57;;;;;;;1999.90;999.90;;;10.80;99.90;;;;;;5094054;28;20500;-69
2023/10/24 02:29:22;;;;;;;1999.90;999.90;;;10.80;99.90;;;;;;5092908;28;20037;-70
2023/10/24 02:31:48;;;;;;;1999.90;999.90;;;10.80;99.90;;;;;;5094714;28;20512;-70
2023/10/24 02:34:13;;;;;;;1999.90;999.90;;;10.80;99.90;;;;;;5093980;28;20094;-70
2023/10/24 02:36:39;;;;;;;1999.90;999.90;;;10.80;99.90;;;;;;5092746;28;20035;-70
2023/10/24 02:39:04;;;;;;;1999.90;999.90;;;10.80;99.90;;;;;;5094702;28;20039;-70
2023/10/24 02:41:30;;;;;;;1999.90;999.90;;;10.90;99.90;;;;;;5094585;28;20441;-70
2023/10/24 02:43:56;;;;;;;1999.90;999.90;;;10.80;99.90;;;;;;5094454;28;20036;-70
2023/10/24 02:46:21;;;;;;;1999.90;999.90;;;10.90;99.90;;;;;;5095015;28;20029;-70
2023/10/24 02:48:47;;;;;;;1999.90;999.90;;;10.90;99.90;;;;;;5098167;28;20105;-70
2023/10/24 02:51:13;;;;;;;1999.90;999.90;;;10.90;99.90;;;;;;5098252;28;20398;-70
2023/10/24 02:53:38;;;;;;;1999.90;999.90;;;10.90;99.90;;;;;;5079066;28;20069;-70
2023/10/24 02:56:04;;;;;;;1999.90;999.90;;;10.90;99.90;;;;;;5077343;28;20415;-70
2023/10/24 02:58:29;;;;;;;1999.90;999.90;;;10.90;99.90;;;;;;5077458;28;20410;-70
2023/10/24 03:00:55;;;;;;;1999.90;999.90;;;10.90;99.90;;;;;;5077872;28;20052;-70
2023/10/24 03:03:20;;;;;;;1999.90;999.90;;;10.90;99.90;;;;;;5077748;28;20104;-70
2023/10/24 03:05:46;;;;;;;1999.90;999.90;;;10.90;99.90;;;;;;5077089;28;20532;-70
2023/10/24 03:08:11;;;;;;;1999.90;999.90;;;10.90;99.90;;;;;;5077479;28;20542;-70
2023/10/24 03:10:41;;;;;;;1999.90;999.90;;;11.00;99.90;;;;;;5075980;28;20033;-70
2023/10/24 03:13:07;;;;;;;1999.90;999.90;;;10.90;99.90;;;;;;5077197;28;20528;-70
2023/10/24 03:15:34;;;;;;;1999.90;999.90;;;10.90;99.90;;;;;;5077487;28;20029;-70
2023/10/24 03:18:00;;;;;;;1999.90;999.90;;;10.90;99.90;;;;;;5077239;28;20757;-70
2023/10/24 03:20:26;;;;;;;1999.90;999.90;;;10.90;99.90;;;;;;5077617;28;20107;-70
2023/10/24 03:22:52;;;;;;;1999.90;999.90;;;10.90;99.90;;;;;;5077108;28;20490;-70
2023/10/24 03:25:17;;;;;;;1999.90;999.90;;;10.90;99.90;;;;;;5077238;28;20116;-69
2023/10/24 03:27:43;;;;;;;1999.90;999.90;;;11.00;99.90;;;;;;5077024;28;20052;-70
2023/10/24 03:30:09;;;;;;;1999.90;999.90;;;11.00;99.90;;;;;;5095732;28;20052;-70
2023/10/24 03:32:34;;;;;;;1999.90;999.90;;;11.00;99.90;;;;;;5097212;28;20126;-70
2023/10/24 03:35:00;;;;;;;1999.90;999.90;;;10.90;99.90;;;;;;5097504;28;20079;-69
2023/10/24 03:37:25;;;;;;;1999.90;999.90;;;11.00;99.90;;;;;;5097290;28;20028;-70
2023/10/24 03:39:51;;;;;;;1999.90;999.90;;;10.90;99.90;;;;;;5097013;28;20037;-70
2023/10/24 03:42:16;;;;;;;1999.90;999.90;;;10.90;99.90;;;;;;5097172;28;20043;-70
2023/10/24 03:44:42;;;;;;;1999.90;999.90;;;10.90;99.90;;;;;;5096862;28;20033;-70
2023/10/24 03:47:07;;;;;;;1999.90;999.90;;;10.90;99.90;;;;;;5096950;28;20031;-70
2023/10/24 03:49:33;;;;;;;1999.90;999.90;;;10.90;99.90;;;;;;5097373;28;20036;-70
2023/10/24 03:51:59;;;;;;;1999.90;999.90;;;11.00;99.90;;;;;;5078551;28;20044;-70
2023/10/24 03:54:26;;;;;;;1999.90;999.90;;;11.00;99.90;;;;;;5076350;28;20044;-70
2023/10/24 03:56:51;;;;;;;1999.90;999.90;;;10.90;99.90;;;;;;5076256;28;20039;-70
2023/10/24 03:59:17;;;;;;;1999.90;999.90;;;11.00;99.90;;;;;;5076635;28;20033;-70
2023/10/24 04:01:42;;;;;;;1999.90;999.90;;;11.00;99.90;;;;;;5076677;28;20055;-70
2023/10/24 04:04:08;;;;;;;1999.90;999.90;;;11.00;99.90;;;;;;5094851;28;20032;-70
2023/10/24 04:06:34;;;;;;;1999.90;999.90;;;11.00;99.90;;;;;;5095173;28;20032;-70
2023/10/24 04:09:04;;;;;;;1999.90;999.90;;;11.00;99.90;;;;;;5096626;28;20036;-70
2023/10/24 04:11:30;;;;;;;1999.90;999.90;;;11.00;99.90;;;;;;5096984;28;20036;-69
2023/10/24 04:13:56;;;;;;;1999.90;999.90;;;10.90;99.90;;;;;;5096800;28;20036;-70
2023/10/24 04:16:21;;;;;;;1999.90;999.90;;;11.00;99.90;;;;;;5096704;28;20032;-70
2023/10/24 04:18:47;;;;;;;1999.90;999.90;;;10.90;99.90;;;;;;5096981;28;20040;-70
2023/10/24 04:21:17;;;;;;;1999.90;999.90;;;11.00;99.90;;;;;;5095403;28;20083;-70
2023/10/24 04:23:43;;;;;;;1999.90;999.90;;;11.00;99.90;;;;;;5096004;28;20081;-70
2023/10/24 04:26:09;;;;;;;1999.90;999.90;;;11.10;99.90;;;;;;5096478;28;20457;-70
2023/10/24 04:28:35;;;;;;;1999.90;999.90;;;11.00;99.90;;;;;;5096676;28;20045;-70
2023/10/24 04:31:00;;;;;;;1999.90;999.90;;;11.00;99.90;;;;;;5096599;28;20072;-70
2023/10/24 04:33:26;;;;;;;1999.90;999.90;;;11.00;99.90;;;;;;5095973;28;20397;-70
2023/10/24 04:35:51;;;;;;;1999.90;999.90;;;10.90;99.90;;;;;;5096313;28;20375;-70
2023/10/24 04:38:18;;;;;;;1999.90;999.90;;;10.90;99.90;;;;;;5096694;28;20033;-70
2023/10/24 04:40:44;;;;;;;1999.90;999.90;;;10.90;99.90;;;;;;5077351;28;20041;-70
2023/10/24 04:43:09;;;;;;;1999.90;999.90;;;11.00;99.90;;;;;;5075814;28;20036;-69
2023/10/24 04:45:36;;;;;;;1999.90;999.90;;;11.00;99.90;;;;;;5076187;28;20044;-69
2023/10/24 04:48:05;;;;;;;1999.90;999.90;;;11.00;99.90;;;;;;5093406;28;20036;-70
2023/10/24 04:50:31;;;;;;;1999.90;999.90;;;11.00;99.90;;;;;;5095974;28;20120;-70
2023/10/24 04:52:57;;;;;;;1999.90;999.90;;;11.00;99.90;;;;;;5094116;28;20035;-70
2023/10/24 04:55:23;;;;;;;1999.90;999.90;;;11.00;99.90;;;;;;5096113;28;20115;-70
2023/10/24 04:57:49;;;;;;;1999.90;999.90;;;11.00;99.90;;;;;;5094091;28;20562;-70
2023/10/24 05:00:15;;;;;;;1999.90;999.90;;;11.00;99.90;;;;;;5095881;28;20525;-70
2023/10/24 05:02:45;;;;;;;1999.90;999.90;;;11.00;99.90;;;;;;5095864;28;20071;-70
2023/10/24 05:05:10;;;;;;;1999.90;999.90;;;11.00;99.90;;;;;;5094180;28;20044;-70
2023/10/24 05:07:36;;;;;;;1999.90;999.90;;;11.00;99.90;;;;;;5091638;28;20033;-70
2023/10/24 05:10:03;;;;;;;1999.90;999.90;;;10.90;99.90;;;;;;5090443;28;20045;-70
2023/10/24 05:12:28;;;;;;;1999.90;999.90;;;11.00;99.90;;;;;;5092457;28;20033;-71
2023/10/24 05:14:54;;;;;;;1999.90;999.90;;;11.00;99.90;;;;;;5094560;28;20029;-71
2023/10/24 05:17:19;;;;;;;1999.90;999.90;;;11.00;99.90;;;;;;5095390;28;20064;-71
2023/10/24 05:19:45;;;;;;;1999.90;999.90;;;10.90;99.90;;;;;;5095580;28;20044;-71
2023/10/24 05:22:11;;;;;;;1999.90;999.90;;;10.90;99.90;;;;;;5095456;28;20397;-70
2023/10/24 05:24:38;;;;;;;1999.90;999.90;;;10.90;99.90;;;;;;5084281;28;20036;-71
2023/10/24 05:27:04;;;;;;;1999.90;999.90;;;11.00;99.90;;;;;;5095240;28;20040;-71
2023/10/24 05:29:36;;;;;;;1999.90;999.90;;;11.00;99.90;;;;;;5095554;28;20067;-70
2023/10/24 05:32:02;;;;;;;1999.90;999.90;;;11.00;99.90;;;;;;5087859;28;20112;-69
2023/10/24 05:34:28;;;;;;;1999.90;999.90;;;11.00;99.90;;;;;;5122755;22;20144;-70
2023/10/24 05:36:54;;;;;;;1999.90;999.90;;;11.00;99.90;;;;;;5101121;28;20036;-71
2023/10/24 05:39:20;;;;;;;1999.90;999.90;;;11.00;99.90;;;;;;5095721;28;20745;-69
2023/10/24 05:41:49;;;;;;;1999.90;999.90;;;11.00;99.90;;;;;;5092297;28;20029;-74
2023/10/24 05:44:15;;;;;;;1999.90;999.90;;;11.00;99.90;;;;;;5097458;28;20489;-69
2023/10/24 05:46:41;;;;;;;1999.90;999.90;;;11.00;99.90;;;;;;5114867;28;20032;-68
2023/10/24 05:49:07;;;;;;;1999.90;999.90;;;11.00;99.90;;;;;;5113509;28;20052;-68
2023/10/24 05:51:32;;;;;;;1999.90;999.90;;;11.00;99.90;;;;;;5076508;28;20033;-68
2023/10/24 05:53:59;;;;;;;1999.90;999.90;;;11.00;99.90;;;;;;5093221;28;20397;-69
2023/10/24 05:56:24;;;;;;;1999.90;999.90;;;11.00;99.90;;;;;;5095091;28;20028;-68
2023/10/24 05:58:50;;;;;;;1999.90;999.90;;;11.00;99.90;;;;;;5095183;28;20040;-69
2023/10/24 06:01:16;;;;;;;1999.90;999.90;;;11.00;99.90;;;;;;5095413;28;20025;-70
2023/10/24 06:03:42;;;;;;;1999.90;999.90;;;10.90;99.90;;;;;;5110047;28;20210;-71
2023/10/24 06:06:08;;;;;;;1999.90;999.90;;;10.90;99.90;;;;;;5096595;28;20187;-68
2023/10/24 06:08:34;;;;;;;1999.90;999.90;;;10.90;99.90;;;;;;5115567;28;20043;-69
2023/10/24 06:11:02;;;;;;;1999.90;999.90;;;10.90;99.90;;;;;;5115570;28;20032;-68
2023/10/24 06:13:27;;;;;;;1999.90;999.90;;;10.90;99.90;;;;;;5115191;28;20121;-69
2023/10/24 06:15:53;;;;;;;1999.90;999.90;;;11.00;99.90;;;;;;5115379;28;20029;-71
2023/10/24 06:18:19;;;;;;;1999.90;999.90;;;10.90;99.90;;;;;;5115339;28;20127;-72
2023/10/24 06:20:46;;;;;;;1999.90;999.90;;;11.00;99.90;;;;;;5115234;28;20028;-69
2023/10/24 06:23:11;;;;;;;1999.90;999.90;;;11.00;99.90;;;;;;5115201;28;20036;-68
2023/10/24 06:25:38;;;;;;;1999.90;999.90;;;11.00;99.90;;;;;;5115304;28;20381;-68
2023/10/24 06:28:04;;;;;;;1999.90;999.90;;;11.00;99.90;;;;;;5115148;28;20107;-68
2023/10/24 06:30:31;;;;;;;1999.90;999.90;;;11.00;99.90;;;;;;5115225;28;20032;-68
2023/10/24 06:32:56;;;;;;;1999.90;999.90;;;11.10;99.90;;;;;;5114731;28;20032;-69
2023/10/24 06:35:22;;;;;;;1999.90;999.90;;;11.10;99.90;;;;;;5115280;28;20043;-69
2023/10/24 06:37:47;;;;;;;1999.90;999.90;;;11.10;99.90;;;;;;5114832;28;20508;-68
2023/10/24 06:40:13;;;;;;;1999.90;999.90;;;11.20;99.90;;;;;;5115039;28;20035;-71
2023/10/24 06:42:39;;;;;;;1999.90;999.90;;;11.20;99.90;;;;;;5115098;28;20098;-69
2023/10/24 06:45:08;;;;;;;1999.90;999.90;;;11.20;99.90;;;;;;5115163;28;20028;-69
2023/10/24 06:47:33;;;;;;;1999.90;999.90;;;11.30;99.90;;;;;;5114812;28;20036;-71
2023/10/24 06:49:59;;;;;;;1999.90;999.90;;;11.30;99.90;;;;;;5114916;28;20044;-69
2023/10/24 06:52:25;;;;;;;1999.90;999.90;;;11.30;99.90;;;;;;5115049;28;20028;-69
2023/10/24 06:54:50;;;;;;;1999.90;999.90;;;11.40;99.90;;;;;;5114711;28;20028;-72
2023/10/24 06:57:17;;;;;;;1999.90;999.90;;;11.40;99.90;;;;;;5114665;28;20033;-69
2023/10/24 06:59:43;;;;;;;1999.90;999.90;;;11.50;99.90;;;;;;5114915;28;20543;-69
2023/10/24 07:02:09;;;;;;;1999.90;999.90;;;11.50;99.90;;;;;;5114856;28;20028;-72
2023/10/24 07:04:34;;;;;;;1999.90;999.90;;;11.50;99.90;;;;;;5114714;28;20063;-69
2023/10/24 07:07:00;;;;;;;1999.90;999.90;;;11.60;99.90;;;;;;5114557;28;20036;-69
2023/10/24 07:09:25;;;;;;;1999.90;999.90;;;11.60;99.90;;;;;;5114644;28;20032;-72
2023/10/24 07:11:51;;;;;;;1999.90;999.90;;;11.60;99.90;;;;;;5114915;28;20089;-69
2023/10/24 07:14:16;;;;;;;1999.90;999.90;;;11.60;99.90;;;;;;5096009;28;20029;-68
2023/10/24 07:16:42;;;;;;;1999.90;999.90;;;11.70;99.90;;;;;;5114497;28;20036;-72
2023/10/24 07:19:07;;;;;;;1999.90;999.90;;;11.60;99.90;;;;;;5114516;28;20036;-69
2023/10/24 07:21:33;;;;;;;1999.90;999.90;;;11.60;99.90;;;;;;5114544;28;20024;-68
2023/10/24 07:23:59;;;;;;;1999.90;999.90;;;11.60;99.90;;;;;;5114611;28;20023;-72
2023/10/24 07:26:24;;;;;;;1999.90;999.90;;;11.60;99.90;;;;;;5114453;28;20117;-69
2023/10/24 07:28:50;;;;;;;1999.90;999.90;;;11.70;99.90;;;;;;5114666;28;20503;-69
2023/10/24 07:31:16;;;;;;;1999.90;999.90;;;11.70;99.90;;;;;;5114683;28;20033;-70
2023/10/24 07:33:41;;;;;;;1999.90;999.90;;;11.70;99.90;;;;;;5116699;27;20447;-72
2023/10/24 07:36:08;;;;;;;1999.90;999.90;;;11.70;99.90;;;;;;5117684;28;20034;-69
2023/10/24 07:38:34;;;;;;;1999.90;999.90;;;11.80;99.90;;;;;;5099450;28;20043;-72
2023/10/24 07:41:00;;;;;;;1999.90;999.90;;;11.80;99.90;;;;;;5099481;28;20028;-69
2023/10/24 07:43:26;;;;;;;1999.90;999.90;;;11.90;99.90;;;;;;5118008;28;20122;-69
2023/10/24 07:45:55;;;;;;;1999.90;999.90;;;11.90;99.90;;;;;;5117487;28;20169;-69
2023/10/24 07:48:23;;;;;;;1999.90;999.90;;;11.90;99.90;;;;;;5117600;28;20149;-69
2023/10/24 07:50:53;;;;;;;1999.90;999.90;;;11.90;99.90;;;;;;5117780;28;20028;-68
2023/10/24 07:53:20;;;;;;;1999.90;999.90;;;11.90;99.90;;;;;;5117539;28;20882;-69
2023/10/24 07:55:46;;;;;;;1999.90;999.90;;;11.80;99.90;;;;;;5116742;28;20139;-69
2023/10/24 07:58:12;;;;;;;1999.90;999.90;;;11.90;99.90;;;;;;5117685;28;20035;-69
2023/10/24 08:00:38;;;;;;;1999.90;999.90;;;11.90;99.90;;;;;;5117765;28;20032;-70
2023/10/24 08:03:03;;;;;;;1999.90;999.90;;;11.80;99.90;;;;;;5117530;28;20424;-69
2023/10/24 08:05:29;;;;;;;1999.90;999.90;;;11.90;99.90;;;;;;5117612;28;20055;-69
2023/10/24 08:07:54;;;;;;;1999.90;999.90;;;11.90;99.90;;;;;;5117368;28;20036;-72
2023/10/24 08:10:20;;;;;;;1999.90;999.90;;;11.90;99.90;;;;;;5117561;28;20076;-69
2023/10/24 08:12:45;;;;;;;1999.90;999.90;;;11.90;99.90;;;;;;5117129;28;20469;-69
2023/10/24 08:15:11;;;;;;;1999.90;999.90;;;11.90;99.90;;;;;;5117548;28;20040;-69
2023/10/24 08:17:37;;;;;;;1999.90;999.90;;;12.00;99.90;;;;;;5117159;28;20063;-69
2023/10/24 08:20:04;;;;;;;1999.90;999.90;;;12.00;99.90;;;;;;5117369;28;20040;-69
2023/10/24 08:22:30;;;;;;;1999.90;999.90;;;12.10;99.90;;;;;;5117303;28;20055;-68
2023/10/24 08:24:55;;;;;;;1999.90;999.90;;;12.10;99.90;;;;;;5117144;28;20497;-68
2023/10/24 08:27:21;;;;;;;1999.90;999.90;;;12.20;99.90;;;;;;5116856;28;20417;-68
2023/10/24 08:29:46;;;;;;;1999.90;999.90;;;12.20;99.90;;;;;;5117191;28;20389;-70
2023/10/24 08:32:12;;;;;;;1999.90;999.90;;;12.20;99.90;;;;;;5117217;28;20044;-68
2023/10/24 08:34:38;;;;;;;1999.90;999.90;;;12.20;99.90;;;;;;5116492;28;20479;-69
2023/10/24 08:37:04;;;;;;;1999.90;999.90;;;12.20;99.90;;;;;;5116907;28;20082;-68
2023/10/24 08:39:30;;;;;;;1999.90;999.90;;;12.20;99.90;;;;;;5117115;28;20432;-69
2023/10/24 08:41:59;;;;;;;1999.90;999.90;;;12.30;99.90;;;;;;5117092;28;20067;-71
2023/10/24 08:44:26;;;;;;;1999.90;999.90;;;12.30;99.90;;;;;;5115551;27;20116;-68
2023/10/24 08:46:52;;;;;;;1999.90;999.90;;;12.20;99.90;;;;;;5116573;28;20509;-69
2023/10/24 08:49:18;;;;;;;1999.90;999.90;;;12.10;99.90;;;;;;5116899;28;20044;-69
2023/10/24 08:51:45;;;;;;;1999.90;999.90;;;12.10;99.90;;;;;;5098346;28;20028;-71
2023/10/24 08:54:13;;;;;;;1999.90;999.90;;;12.00;99.90;;;;;;5116350;28;20117;-70
2023/10/24 08:56:41;;;;;;;1999.90;999.90;;;12.00;99.90;;;;;;5116598;28;20056;-68
2023/10/24 08:59:13;;;;;;;1999.90;999.90;;;12.10;99.90;;;;;;5116566;28;20039;-69
2023/10/24 09:01:41;;;;;;;1999.90;999.90;;;12.10;99.90;;;;;;5116562;28;20032;-71
2023/10/24 09:04:07;;;;;;;1999.90;999.90;;;12.20;99.90;;;;;;5116297;28;20105;-68
2023/10/24 09:06:34;;;;;;;1999.90;999.90;;;12.20;99.90;;;;;;5116462;28;20039;-68
2023/10/24 09:09:00;;;;;;;1999.90;999.90;;;12.20;99.90;;;;;;5116232;28;20040;-69
2023/10/24 09:11:46;;;;;;;1999.90;999.90;;;12.20;99.90;;;;;;5116274;28;20470;-69
2023/10/24 09:14:11;;;;;;;1999.90;999.90;;;12.20;99.90;;;;;;5097530;28;20492;-68
2023/10/24 09:16:37;;;;;;;1999.90;999.90;;;12.30;99.90;;;;;;5097593;28;20024;-68
2023/10/24 09:19:12;;;;;;;1999.90;999.90;;;12.30;99.90;;;;;;5116271;28;20036;-71
2023/10/24 09:21:38;;;;;;;1999.90;999.90;;;12.30;99.90;;;;;;5116643;28;20468;-68
2023/10/24 09:24:12;;;;;;;1999.90;999.90;;;12.30;99.90;;;;;;5116354;28;20078;-68
2023/10/24 09:26:38;;;;;;;1999.90;999.90;;;12.30;99.90;;;;;;5116242;28;20493;-68
2023/10/24 09:29:07;;;;;;;1999.90;999.90;;;12.40;99.90;;;;;;5116103;28;20047;-68
2023/10/24 09:31:33;;;;;;;1999.90;999.90;;;12.40;99.90;;;;;;5116155;28;20138;-68
2023/10/24 09:33:59;;;;;;;1999.90;999.90;;;12.40;99.90;;;;;;5115694;28;20118;-69
2023/10/24 09:36:27;;;;;;;1999.90;999.90;;;12.40;99.90;;;;;;5115875;28;20039;-69
2023/10/24 09:38:54;;;;;;;1999.90;999.90;;;12.40;99.90;;;;;;5106300;28;20472;-70
2023/10/24 09:41:21;;;;;;;1999.90;999.90;;;12.50;99.90;;;;;;5095584;28;20082;-68
2023/10/24 09:43:48;;;;;;;1999.90;999.90;;;12.60;99.90;;;;;;5095363;28;20123;-69
2023/10/24 09:46:22;;;;;;;1999.90;999.90;;;12.60;99.90;;;;;;5095314;28;20029;-69
2023/10/24 09:48:49;;;;;;;1999.90;999.90;;;12.60;99.90;;;;;;5095449;28;20037;-68
2023/10/24 09:51:21;;;;;;;1999.90;999.90;;;12.60;99.90;;;;;;5095484;28;20029;-69
2023/10/24 09:53:48;;;;;;;1999.90;999.90;;;12.60;99.90;;;;;;5095356;28;20846;-68
2023/10/24 09:56:13;;;;;;;1999.90;999.90;;;12.60;99.90;;;;;;5094860;28;20481;-71
2023/10/24 09:58:41;;;;;;;1999.90;999.90;;;12.70;99.90;;;;;;5095411;28;20036;-68
2023/10/24 10:01:11;;;;;;;1999.90;999.90;;;12.70;99.90;;;;;;5095154;28;20517;-69
2023/10/24 10:03:36;;;;;;;1999.90;999.90;;;12.70;99.90;;;;;;5094901;28;20033;-69
2023/10/24 10:06:05;;;;;;;1999.90;999.90;;;12.70;99.90;;;;;;5094887;28;20389;-68
2023/10/24 10:08:39;;;;;;;1999.90;999.90;;;12.70;99.90;;;;;;5095139;28;20394;-69
2023/10/24 10:11:06;;;;;;;1999.90;999.90;;;12.50;99.90;;;;;;5094777;28;20056;-70
2023/10/24 10:13:49;;;;;;;1999.90;999.90;;;12.50;99.90;;;;;;5094695;28;20028;-70
2023/10/24 10:16:20;;;;;;;1999.90;999.90;;;12.60;99.90;;;;;;5094654;28;20441;-70
2023/10/24 10:19:17;;;;;;;1999.90;999.90;;;12.60;99.90;;;;;;5094903;28;20480;-70
2023/10/24 10:22:08;;;;;;;1999.90;999.90;;;12.50;99.90;;;;;;5094941;28;20024;-70
2023/10/24 10:25:31;;;;;;;1999.90;999.90;;;12.50;99.90;;;;;;5094714;28;20119;-70
2023/10/24 10:28:28;;;;;;;1999.90;999.90;;;12.50;99.90;;;;;;5051460;28;20033;-70
2023/10/24 10:31:24;;;;;;;1999.90;999.90;;;12.60;99.90;;;;;;5051054;28;20596;-70
2023/10/24 10:33:50;;;;;;;1999.90;999.90;;;12.60;99.90;;;;;;5093830;28;20036;-70
2023/10/24 10:36:15;;;;;;;1999.90;999.90;;;12.50;99.90;;;;;;5094288;28;20063;-70
2023/10/24 10:38:45;;;;;;;1999.90;999.90;;;12.50;99.90;;;;;;5094386;28;20036;-70
2023/10/24 10:41:21;;;;;;;1999.90;999.90;;;12.50;99.90;;;;;;5094460;28;20057;-70
2023/10/24 10:43:47;;;;;;;1999.90;999.90;;;12.60;99.90;;;;;;5094471;28;20029;-70
2023/10/24 10:46:20;;;;;;;1999.90;999.90;;;12.70;99.90;;;;;;5094133;28;20043;-70
2023/10/24 10:48:48;;;;;;;1999.90;999.90;;;12.70;99.90;;;;;;5094401;28;20033;-70
2023/10/24 10:51:16;;;;;;;1999.90;999.90;;;12.80;99.90;;;;;;5094272;28;20028;-70
2023/10/24 10:54:08;;;;;;;1999.90;999.90;;;12.90;99.90;;;;;;5094027;28;20819;-70
2023/10/24 10:56:37;;;;;;;1999.90;999.90;;;13.00;99.90;;;;;;5094324;28;20775;-70
2023/10/24 10:59:40;;;;;;;1999.90;999.90;;;13.00;99.90;;;;;;5075950;28;20032;-70
2023/10/24 11:02:36;;;;;;;1999.90;999.90;;;13.00;99.90;;;;;;5094076;28;20033;-70
2023/10/24 11:05:43;;;;;;;1999.90;999.90;;;13.10;99.90;;;;;;5094046;28;20029;-70
2023/10/24 11:08:17;;;;;;;1999.90;999.90;;;13.10;99.90;;;;;;5088392;28;20595;-70
2023/10/24 11:10:56;;;;;;;1999.90;999.90;;;13.10;99.90;;;;;;5097961;28;20034;-70
2023/10/24 11:13:36;;;;;;;1999.90;999.90;;;13.10;99.90;;;;;;5097324;28;20024;-70
2023/10/24 11:16:03;;;;;;;1999.90;999.90;;;13.00;99.90;;;;;;5097449;28;20029;-70
2023/10/24 11:18:33;;;;;;;1999.90;999.90;;;13.10;99.90;;;;;;5097698;28;20445;-70
2023/10/24 11:21:00;;;;;;;1999.90;999.90;;;13.00;99.90;;;;;;5097297;28;20043;-70
2023/10/24 11:23:28;;;;;;;1999.90;999.90;;;13.00;99.90;;;;;;5097449;28;20029;-70
2023/10/24 11:25:57;;;;;;;1999.90;999.90;;;13.10;99.90;;;;;;5096657;28;20060;-70
2023/10/24 11:28:25;;;;;;;1999.90;999.90;;;13.10;99.90;;;;;;5097364;28;20116;-70
2023/10/24 11:30:51;;;;;;;1999.90;999.90;;;13.10;99.90;;;;;;5097427;28;20123;-70
2023/10/24 11:33:17;;;;;;;1999.90;999.90;;;13.10;99.90;;;;;;5120119;22;20049;-73
2023/10/24 11:35:43;;;;;;;1999.90;999.90;;;13.10;99.90;;;;;;5095364;28;20040;-73
2023/10/24 11:38:09;;;;;;;1999.90;999.90;;;13.10;99.90;;;;;;5097510;28;20025;-73
2023/10/24 11:40:34;;;;;;;1999.90;999.90;;;13.10;99.90;;;;;;5097568;28;20028;-73
2023/10/24 11:43:07;;;;;;;1999.90;999.90;;;13.10;99.90;;;;;;5097004;28;20072;-73
2023/10/24 11:45:33;;;;;;;1999.90;999.90;;;13.10;99.90;;;;;;5095788;28;20039;-73
2023/10/24 11:47:59;;;;;;;1999.90;999.90;;;13.10;99.90;;;;;;5097091;28;20379;-73
2023/10/24 11:50:37;;;;;;;1999.90;999.90;;;13.20;99.90;;;;;;5097279;28;20052;-72
2023/10/24 11:53:03;;;;;;;1999.90;999.90;;;13.20;99.90;;;;;;5097175;28;20042;-74
2023/10/24 11:55:31;;;;;;;1999.90;999.90;;;13.20;99.90;;;;;;5097243;28;20048;-73
2023/10/24 11:57:58;;;;;;;1999.90;999.90;;;13.10;99.90;;;;;;5096698;28;20508;-73
2023/10/24 12:00:28;;;;;;;1999.90;999.90;;;13.20;99.90;;;;;;5097208;28;20032;-73